sensor_id;sensor_type;location;lat;lon;timestamp;temperature;humidity
15969;DHT22;8085;53.472;9.794;2022-08-11T00:01:06;20.50;1.00
15969;DHT22;8085;53.472;9.794;2022-08-11T00:03:34;20.40;1.00
15969;DHT22;8085;53.472;9.794;2022-08-11T00:06:02;20.30;1.00
15969;DHT22;8085;53.472;9.794;2022-08-11T00:08:31;20.10;99.90
15969;DHT22;8085;53.472;9.794;2022-08-11T00:11:02;20.00;99.90
15969;DHT22;8085;53.472;9.794;2022-08-11T00:13:35;19.90;99.90
15969;DHT22;8085;53.472;9.794;2022-08-11T00:16:04;19.90;99.90
15969;DHT22;8085;53.472;9.794;2022-08-11T00:18:38;19.90;99.90
15969;DHT22;8085;53.472;9.794;2022-08-11T00:21:06;19.70;1.00
15969;DHT22;8085;53.472;9.794;2022-08-11T00:23:40;19.70;1.00
15969;DHT22;8085;53.472;9.794;2022-08-11T00:26:09;19.60;1.00
15969;DHT22;8085;53.472;9.794;2022-08-11T00:28:37;19.60;1.00
15969;DHT22;8085;53.472;9.794;2022-08-11T00:31:06;19.50;1.00
15969;DHT22;8085;53.472;9.794;2022-08-11T00:33:37;19.50;1.00
15969;DHT22;8085;53.472;9.794;2022-08-11T00:36:06;19.50;1.00
15969;DHT22;8085;53.472;9.794;2022-08-11T00:38:37;19.40;1.00
15969;DHT22;8085;53.472;9.794;2022-08-11T00:41:19;19.40;1.00
15969;DHT22;8085;53.472;9.794;2022-08-11T00:44:13;19.40;1.00
15969;DHT22;8085;53.472;9.794;2022-08-11T00:46:49;19.40;1.00
15969;DHT22;8085;53.472;9.794;2022-08-11T00:50:34;19.30;1.00
15969;DHT22;8085;53.472;9.794;2022-08-11T00:53:33;19.30;1.00
15969;DHT22;8085;53.472;9.794;2022-08-11T01:03:45;19.30;1.00
15969;DHT22;8085;53.472;9.794;2022-08-11T01:15:45;19.10;1.00
15969;DHT22;8085;53.472;9.794;2022-08-11T01:25:57;19.20;1.00
15969;DHT22;8085;53.472;9.794;2022-08-11T01:32:09;18.70;1.00
15969;DHT22;8085;53.472;9.794;2022-08-11T01:35:41;18.70;1.00
15969;DHT22;8085;53.472;9.794;2022-08-11T01:42:06;18.50;1.00
15969;DHT22;8085;53.472;9.794;2022-08-11T01:45:31;18.40;1.00
15969;DHT22;8085;53.472;9.794;2022-08-11T01:48:25;18.40;1.00
15969;DHT22;8085;53.472;9.794;2022-08-11T01:55:27;18.30;1.00
15969;DHT22;8085;53.472;9.794;2022-08-11T01:58:54;18.30;1.00
15969;DHT22;8085;53.472;9.794;2022-08-11T02:02:56;18.30;1.00
15969;DHT22;8085;53.472;9.794;2022-08-11T02:09:16;18.20;1.00
15969;DHT22;8085;53.472;9.794;2022-08-11T02:10:50;18.00;1.00
15969;DHT22;8085;53.472;9.794;2022-08-11T02:17:56;18.10;1.00
15969;DHT22;8085;53.472;9.794;2022-08-11T02:21:26;18.10;1.00
15969;DHT22;8085;53.472;9.794;2022-08-11T02:24:39;17.90;1.00
15969;DHT22;8085;53.472;9.794;2022-08-11T02:27:54;17.80;1.00
15969;DHT22;8085;53.472;9.794;2022-08-11T02:31:45;17.70;1.00
15969;DHT22;8085;53.472;9.794;2022-08-11T02:41:12;17.70;1.00
15969;DHT22;8085;53.472;9.794;2022-08-11T02:44:35;17.70;1.00
15969;DHT22;8085;53.472;9.794;2022-08-11T02:47:34;17.70;1.00
15969;DHT22;8085;53.472;9.794;2022-08-11T02:53:50;17.60;1.00
15969;DHT22;8085;53.472;9.794;2022-08-11T02:56:34;17.70;1.00
15969;DHT22;8085;53.472;9.794;2022-08-11T02:59:24;17.80;1.00
15969;DHT22;8085;53.472;9.794;2022-08-11T03:02:32;17.70;1.00
15969;DHT22;8085;53.472;9.794;2022-08-11T03:05:21;17.70;1.00
15969;DHT22;8085;53.472;9.794;2022-08-11T03:08:13;17.60;1.00
15969;DHT22;8085;53.472;9.794;2022-08-11T03:11:02;17.50;1.00
15969;DHT22;8085;53.472;9.794;2022-08-11T03:13:54;17.40;1.00
15969;DHT22;8085;53.472;9.794;2022-08-11T03:17:15;17.30;1.00
15969;DHT22;8085;53.472;9.794;2022-08-11T03:20:47;17.20;1.00
15969;DHT22;8085;53.472;9.794;2022-08-11T03:23:52;17.00;1.00
15969;DHT22;8085;53.472;9.794;2022-08-11T03:26:28;16.90;1.00
15969;DHT22;8085;53.472;9.794;2022-08-11T03:29:05;16.90;1.00
15969;DHT22;8085;53.472;9.794;2022-08-11T03:31:36;16.90;1.00
15969;DHT22;8085;53.472;9.794;2022-08-11T03:34:09;16.90;1.00
15969;DHT22;8085;53.472;9.794;2022-08-11T03:37:07;16.90;1.00
15969;DHT22;8085;53.472;9.794;2022-08-11T03:39:47;16.90;1.00
15969;DHT22;8085;53.472;9.794;2022-08-11T03:42:21;16.90;1.00
15969;DHT22;8085;53.472;9.794;2022-08-11T03:45:11;16.80;1.00
15969;DHT22;8085;53.472;9.794;2022-08-11T03:48:08;16.90;1.00
15969;DHT22;8085;53.472;9.794;2022-08-11T03:50:57;16.90;1.00
15969;DHT22;8085;53.472;9.794;2022-08-11T03:54:10;16.90;1.00
15969;DHT22;8085;53.472;9.794;2022-08-11T03:57:27;16.80;1.00
15969;DHT22;8085;53.472;9.794;2022-08-11T04:00:44;16.70;8.20
15969;DHT22;8085;53.472;9.794;2022-08-11T04:07:44;16.40;7.20
15969;DHT22;8085;53.472;9.794;2022-08-11T04:20:52;16.50;5.80
15969;DHT22;8085;53.472;9.794;2022-08-11T04:24:06;16.40;2.70
15969;DHT22;8085;53.472;9.794;2022-08-11T04:29:55;16.20;26.00
15969;DHT22;8085;53.472;9.794;2022-08-11T04:32:38;16.30;28.80
15969;DHT22;8085;53.472;9.794;2022-08-11T04:35:25;16.40;24.70
15969;DHT22;8085;53.472;9.794;2022-08-11T04:38:14;16.50;23.90
15969;DHT22;8085;53.472;9.794;2022-08-11T04:40:53;16.40;24.50
15969;DHT22;8085;53.472;9.794;2022-08-11T04:46:40;16.40;35.00
15969;DHT22;8085;53.472;9.794;2022-08-11T04:49:28;16.50;35.20
15969;DHT22;8085;53.472;9.794;2022-08-11T04:56:08;16.60;31.30
15969;DHT22;8085;53.472;9.794;2022-08-11T04:59:10;16.70;31.80
15969;DHT22;8085;53.472;9.794;2022-08-11T05:02:27;16.70;34.80
15969;DHT22;8085;53.472;9.794;2022-08-11T05:05:08;16.70;41.80
15969;DHT22;8085;53.472;9.794;2022-08-11T05:14:23;17.10;25.40
15969;DHT22;8085;53.472;9.794;2022-08-11T05:17:12;17.20;19.30
15969;DHT22;8085;53.472;9.794;2022-08-11T05:19:58;17.30;22.10
15969;DHT22;8085;53.472;9.794;2022-08-11T05:22:47;17.30;18.50
15969;DHT22;8085;53.472;9.794;2022-08-11T05:25:34;17.50;17.40
15969;DHT22;8085;53.472;9.794;2022-08-11T05:28:31;17.60;12.90
15969;DHT22;8085;53.472;9.794;2022-08-11T05:31:19;17.70;6.70
15969;DHT22;8085;53.472;9.794;2022-08-11T05:34:09;17.90;1.00
15969;DHT22;8085;53.472;9.794;2022-08-11T05:37:01;18.00;1.00
15969;DHT22;8085;53.472;9.794;2022-08-11T05:39:43;18.10;1.00
15969;DHT22;8085;53.472;9.794;2022-08-11T05:42:28;18.20;1.00
15969;DHT22;8085;53.472;9.794;2022-08-11T05:45:16;18.30;1.00
15969;DHT22;8085;53.472;9.794;2022-08-11T05:48:02;18.50;1.00
15969;DHT22;8085;53.472;9.794;2022-08-11T05:50:52;18.60;1.00
15969;DHT22;8085;53.472;9.794;2022-08-11T05:53:50;18.80;1.00
15969;DHT22;8085;53.472;9.794;2022-08-11T05:56:42;18.90;1.00
15969;DHT22;8085;53.472;9.794;2022-08-11T05:59:15;19.20;1.00
15969;DHT22;8085;53.472;9.794;2022-08-11T06:01:45;19.30;1.00
15969;DHT22;8085;53.472;9.794;2022-08-11T06:04:17;19.40;1.00
15969;DHT22;8085;53.472;9.794;2022-08-11T06:06:50;19.50;1.00
15969;DHT22;8085;53.472;9.794;2022-08-11T06:09:27;19.60;1.00
15969;DHT22;8085;53.472;9.794;2022-08-11T06:11:59;19.60;1.00
15969;DHT22;8085;53.472;9.794;2022-08-11T06:14:27;19.60;1.00
15969;DHT22;8085;53.472;9.794;2022-08-11T06:16:57;19.70;1.00
15969;DHT22;8085;53.472;9.794;2022-08-11T06:19:33;19.70;1.00
15969;DHT22;8085;53.472;9.794;2022-08-11T06:22:01;19.70;1.00
15969;DHT22;8085;53.472;9.794;2022-08-11T06:24:30;19.70;1.00
15969;DHT22;8085;53.472;9.794;2022-08-11T06:26:58;19.70;1.00
15969;DHT22;8085;53.472;9.794;2022-08-11T06:29:26;19.80;1.00
15969;DHT22;8085;53.472;9.794;2022-08-11T06:31:59;19.80;1.00
15969;DHT22;8085;53.472;9.794;2022-08-11T06:34:37;19.80;1.00
15969;DHT22;8085;53.472;9.794;2022-08-11T06:37:19;19.90;1.00
15969;DHT22;8085;53.472;9.794;2022-08-11T06:39:53;20.00;1.00
15969;DHT22;8085;53.472;9.794;2022-08-11T06:42:33;20.00;1.00
15969;DHT22;8085;53.472;9.794;2022-08-11T06:45:06;20.10;1.00
15969;DHT22;8085;53.472;9.794;2022-08-11T06:47:44;20.10;1.00
15969;DHT22;8085;53.472;9.794;2022-08-11T06:50:15;20.20;1.00
15969;DHT22;8085;53.472;9.794;2022-08-11T06:53:01;20.30;1.00
15969;DHT22;8085;53.472;9.794;2022-08-11T06:55:29;20.40;1.00
15969;DHT22;8085;53.472;9.794;2022-08-11T06:58:17;20.50;1.00
15969;DHT22;8085;53.472;9.794;2022-08-11T07:01:07;20.60;1.00
15969;DHT22;8085;53.472;9.794;2022-08-11T07:03:46;20.70;1.00
15969;DHT22;8085;53.472;9.794;2022-08-11T07:06:22;20.80;1.00
15969;DHT22;8085;53.472;9.794;2022-08-11T07:09:20;20.90;1.00
15969;DHT22;8085;53.472;9.794;2022-08-11T07:12:36;21.10;1.00
15969;DHT22;8085;53.472;9.794;2022-08-11T07:15:25;21.10;99.90
15969;DHT22;8085;53.472;9.794;2022-08-11T07:18:11;21.20;99.90
15969;DHT22;8085;53.472;9.794;2022-08-11T07:21:08;21.30;99.90
15969;DHT22;8085;53.472;9.794;2022-08-11T07:23:56;21.50;99.90
15969;DHT22;8085;53.472;9.794;2022-08-11T07:26:47;21.70;99.90
15969;DHT22;8085;53.472;9.794;2022-08-11T07:30:12;21.80;27.40
15969;DHT22;8085;53.472;9.794;2022-08-11T07:32:50;22.00;99.90
15969;DHT22;8085;53.472;9.794;2022-08-11T07:35:23;22.20;99.90
15969;DHT22;8085;53.472;9.794;2022-08-11T07:38:01;22.30;99.90
15969;DHT22;8085;53.472;9.794;2022-08-11T07:40:33;22.60;99.90
15969;DHT22;8085;53.472;9.794;2022-08-11T07:43:04;22.90;1.00
15969;DHT22;8085;53.472;9.794;2022-08-11T07:45:33;23.10;99.90
15969;DHT22;8085;53.472;9.794;2022-08-11T07:48:26;23.40;1.00
15969;DHT22;8085;53.472;9.794;2022-08-11T07:51:13;23.50;37.40
15969;DHT22;8085;53.472;9.794;2022-08-11T07:54:16;23.50;1.00
15969;DHT22;8085;53.472;9.794;2022-08-11T07:56:45;23.70;99.90
15969;DHT22;8085;53.472;9.794;2022-08-11T07:59:12;23.90;99.90
15969;DHT22;8085;53.472;9.794;2022-08-11T08:01:57;24.10;1.00
15969;DHT22;8085;53.472;9.794;2022-08-11T08:04:42;24.30;99.90
15969;DHT22;8085;53.472;9.794;2022-08-11T08:07:28;24.40;99.90
15969;DHT22;8085;53.472;9.794;2022-08-11T08:10:16;24.60;1.00
15969;DHT22;8085;53.472;9.794;2022-08-11T08:13:02;24.40;99.90
15969;DHT22;8085;53.472;9.794;2022-08-11T08:15:47;24.30;1.00
15969;DHT22;8085;53.472;9.794;2022-08-11T08:18:33;24.60;1.00
15969;DHT22;8085;53.472;9.794;2022-08-11T08:21:26;25.00;96.50
15969;DHT22;8085;53.472;9.794;2022-08-11T08:23:53;25.20;1.00
15969;DHT22;8085;53.472;9.794;2022-08-11T08:26:22;25.40;99.90
15969;DHT22;8085;53.472;9.794;2022-08-11T08:29:08;25.50;99.90
15969;DHT22;8085;53.472;9.794;2022-08-11T08:31:53;25.30;1.00
15969;DHT22;8085;53.472;9.794;2022-08-11T08:34:22;25.30;1.00
15969;DHT22;8085;53.472;9.794;2022-08-11T08:36:50;25.50;36.60
15969;DHT22;8085;53.472;9.794;2022-08-11T08:39:19;25.80;1.00
15969;DHT22;8085;53.472;9.794;2022-08-11T08:41:48;26.10;99.90
15969;DHT22;8085;53.472;9.794;2022-08-11T08:44:20;26.10;99.90
15969;DHT22;8085;53.472;9.794;2022-08-11T08:46:50;26.20;99.90
15969;DHT22;8085;53.472;9.794;2022-08-11T08:49:24;26.50;99.90
15969;DHT22;8085;53.472;9.794;2022-08-11T08:51:54;26.60;70.10
15969;DHT22;8085;53.472;9.794;2022-08-11T08:54:28;26.40;29.60
15969;DHT22;8085;53.472;9.794;2022-08-11T08:56:57;26.30;1.00
15969;DHT22;8085;53.472;9.794;2022-08-11T08:59:27;26.20;1.00
15969;DHT22;8085;53.472;9.794;2022-08-11T09:01:57;26.30;1.00
15969;DHT22;8085;53.472;9.794;2022-08-11T09:04:26;26.50;1.00
15969;DHT22;8085;53.472;9.794;2022-08-11T09:06:57;26.60;1.00
15969;DHT22;8085;53.472;9.794;2022-08-11T09:09:25;26.80;1.00
15969;DHT22;8085;53.472;9.794;2022-08-11T09:11:53;26.80;1.00
15969;DHT22;8085;53.472;9.794;2022-08-11T09:14:24;26.80;99.90
15969;DHT22;8085;53.472;9.794;2022-08-11T09:17:14;26.90;99.90
15969;DHT22;8085;53.472;9.794;2022-08-11T09:19:57;27.00;99.90
15969;DHT22;8085;53.472;9.794;2022-08-11T09:22:25;27.20;99.90
15969;DHT22;8085;53.472;9.794;2022-08-11T09:25:10;27.30;99.90
15969;DHT22;8085;53.472;9.794;2022-08-11T09:28:03;27.30;1.00
15969;DHT22;8085;53.472;9.794;2022-08-11T09:30:33;27.40;1.00
15969;DHT22;8085;53.472;9.794;2022-08-11T09:33:01;27.40;1.00
15969;DHT22;8085;53.472;9.794;2022-08-11T09:35:33;27.40;1.00
15969;DHT22;8085;53.472;9.794;2022-08-11T09:38:03;27.70;1.00
15969;DHT22;8085;53.472;9.794;2022-08-11T09:40:48;27.70;1.00
15969;DHT22;8085;53.472;9.794;2022-08-11T09:46:57;28.10;1.00
15969;DHT22;8085;53.472;9.794;2022-08-11T09:49:25;28.30;1.00
15969;DHT22;8085;53.472;9.794;2022-08-11T09:51:54;28.50;1.00
15969;DHT22;8085;53.472;9.794;2022-08-11T09:54:23;28.50;1.00
15969;DHT22;8085;53.472;9.794;2022-08-11T09:56:51;28.60;1.00
15969;DHT22;8085;53.472;9.794;2022-08-11T09:59:36;28.60;1.00
15969;DHT22;8085;53.472;9.794;2022-08-11T10:02:06;28.70;99.90
15969;DHT22;8085;53.472;9.794;2022-08-11T10:04:39;28.80;99.90
15969;DHT22;8085;53.472;9.794;2022-08-11T10:07:07;28.80;99.90
15969;DHT22;8085;53.472;9.794;2022-08-11T10:09:40;28.90;99.90
15969;DHT22;8085;53.472;9.794;2022-08-11T10:13:32;29.00;99.90
15969;DHT22;8085;53.472;9.794;2022-08-11T10:16:28;29.20;99.90
15969;DHT22;8085;53.472;9.794;2022-08-11T10:18:58;29.10;99.90
15969;DHT22;8085;53.472;9.794;2022-08-11T10:21:29;29.30;99.90
15969;DHT22;8085;53.472;9.794;2022-08-11T10:24:00;29.30;99.90
15969;DHT22;8085;53.472;9.794;2022-08-11T10:26:47;29.30;99.90
15969;DHT22;8085;53.472;9.794;2022-08-11T10:29:27;29.30;99.90
15969;DHT22;8085;53.472;9.794;2022-08-11T10:32:32;29.30;99.90
15969;DHT22;8085;53.472;9.794;2022-08-11T10:35:59;29.20;99.90
15969;DHT22;8085;53.472;9.794;2022-08-11T10:38:51;29.10;99.90
15969;DHT22;8085;53.472;9.794;2022-08-11T10:41:36;29.30;96.70
15969;DHT22;8085;53.472;9.794;2022-08-11T10:44:21;29.40;99.90
15969;DHT22;8085;53.472;9.794;2022-08-11T10:46:49;29.40;99.80
15969;DHT22;8085;53.472;9.794;2022-08-11T10:49:36;29.70;99.90
15969;DHT22;8085;53.472;9.794;2022-08-11T10:52:05;29.70;99.90
15969;DHT22;8085;53.472;9.794;2022-08-11T10:54:50;29.90;98.80
15969;DHT22;8085;53.472;9.794;2022-08-11T10:57:34;29.70;25.10
15969;DHT22;8085;53.472;9.794;2022-08-11T11:00:19;29.70;9.50
15969;DHT22;8085;53.472;9.794;2022-08-11T11:02:46;29.70;1.00
15969;DHT22;8085;53.472;9.794;2022-08-11T11:05:20;29.70;16.90
15969;DHT22;8085;53.472;9.794;2022-08-11T11:07:55;29.90;27.00
15969;DHT22;8085;53.472;9.794;2022-08-11T11:10:25;29.90;7.50
15969;DHT22;8085;53.472;9.794;2022-08-11T11:12:55;30.00;4.40
15969;DHT22;8085;53.472;9.794;2022-08-11T11:15:43;30.30;1.00
15969;DHT22;8085;53.472;9.794;2022-08-11T11:18:33;30.60;1.00
15969;DHT22;8085;53.472;9.794;2022-08-11T11:21:05;30.60;8.10
15969;DHT22;8085;53.472;9.794;2022-08-11T11:23:39;30.70;5.70
15969;DHT22;8085;53.472;9.794;2022-08-11T11:29:19;30.40;9.00
15969;DHT22;8085;53.472;9.794;2022-08-11T11:32:05;30.60;1.50
15969;DHT22;8085;53.472;9.794;2022-08-11T11:37:44;30.60;1.00
15969;DHT22;8085;53.472;9.794;2022-08-11T11:40:15;30.40;1.00
15969;DHT22;8085;53.472;9.794;2022-08-11T11:42:48;30.90;1.00
15969;DHT22;8085;53.472;9.794;2022-08-11T11:45:17;31.10;1.00
15969;DHT22;8085;53.472;9.794;2022-08-11T11:47:45;31.00;1.00
15969;DHT22;8085;53.472;9.794;2022-08-11T11:50:22;31.00;1.00
15969;DHT22;8085;53.472;9.794;2022-08-11T11:52:51;30.90;1.00
15969;DHT22;8085;53.472;9.794;2022-08-11T11:55:23;31.10;1.00
15969;DHT22;8085;53.472;9.794;2022-08-11T11:57:51;31.00;1.00
15969;DHT22;8085;53.472;9.794;2022-08-11T12:00:37;30.70;1.00
15969;DHT22;8085;53.472;9.794;2022-08-11T12:03:23;30.40;1.00
15969;DHT22;8085;53.472;9.794;2022-08-11T12:05:51;30.50;1.00
15969;DHT22;8085;53.472;9.794;2022-08-11T12:08:20;30.70;1.00
15969;DHT22;8085;53.472;9.794;2022-08-11T12:10:52;30.80;1.00
15969;DHT22;8085;53.472;9.794;2022-08-11T12:13:42;31.00;1.00
15969;DHT22;8085;53.472;9.794;2022-08-11T12:16:09;31.00;1.00
15969;DHT22;8085;53.472;9.794;2022-08-11T12:18:37;31.00;1.00
15969;DHT22;8085;53.472;9.794;2022-08-11T12:21:05;30.90;1.00
15969;DHT22;8085;53.472;9.794;2022-08-11T12:23:34;31.30;1.00
15969;DHT22;8085;53.472;9.794;2022-08-11T12:26:21;31.40;1.00
15969;DHT22;8085;53.472;9.794;2022-08-11T12:29:08;31.40;1.00
15969;DHT22;8085;53.472;9.794;2022-08-11T12:31:37;31.40;1.00
15969;DHT22;8085;53.472;9.794;2022-08-11T12:34:06;31.40;1.00
15969;DHT22;8085;53.472;9.794;2022-08-11T12:36:36;31.40;1.00
15969;DHT22;8085;53.472;9.794;2022-08-11T12:39:06;31.10;1.00
15969;DHT22;8085;53.472;9.794;2022-08-11T12:41:36;31.30;1.00
15969;DHT22;8085;53.472;9.794;2022-08-11T12:44:24;31.40;1.00
15969;DHT22;8085;53.472;9.794;2022-08-11T12:47:10;31.30;1.00
15969;DHT22;8085;53.472;9.794;2022-08-11T12:49:43;31.00;1.00
15969;DHT22;8085;53.472;9.794;2022-08-11T12:52:31;30.90;1.00
15969;DHT22;8085;53.472;9.794;2022-08-11T12:55:01;30.90;1.00
15969;DHT22;8085;53.472;9.794;2022-08-11T12:57:33;31.20;1.00
15969;DHT22;8085;53.472;9.794;2022-08-11T13:00:18;31.40;1.00
15969;DHT22;8085;53.472;9.794;2022-08-11T13:03:06;31.30;1.00
15969;DHT22;8085;53.472;9.794;2022-08-11T13:05:53;31.10;1.00
15969;DHT22;8085;53.472;9.794;2022-08-11T13:08:22;30.90;1.00
15969;DHT22;8085;53.472;9.794;2022-08-11T13:10:54;31.40;1.00
15969;DHT22;8085;53.472;9.794;2022-08-11T13:13:46;31.70;1.00
15969;DHT22;8085;53.472;9.794;2022-08-11T13:16:14;31.60;1.00
15969;DHT22;8085;53.472;9.794;2022-08-11T13:18:42;31.50;1.00
15969;DHT22;8085;53.472;9.794;2022-08-11T13:21:10;31.50;1.00
15969;DHT22;8085;53.472;9.794;2022-08-11T13:23:39;31.40;1.00
15969;DHT22;8085;53.472;9.794;2022-08-11T13:26:07;31.30;1.00
15969;DHT22;8085;53.472;9.794;2022-08-11T13:28:36;31.40;1.00
15969;DHT22;8085;53.472;9.794;2022-08-11T13:31:05;31.40;1.00
15969;DHT22;8085;53.472;9.794;2022-08-11T13:33:40;31.30;1.00
15969;DHT22;8085;53.472;9.794;2022-08-11T13:36:08;31.40;1.00
15969;DHT22;8085;53.472;9.794;2022-08-11T13:38:36;31.40;1.00
15969;DHT22;8085;53.472;9.794;2022-08-11T13:41:06;31.40;1.00
15969;DHT22;8085;53.472;9.794;2022-08-11T13:43:54;31.30;1.00
15969;DHT22;8085;53.472;9.794;2022-08-11T13:46:23;31.60;1.00
15969;DHT22;8085;53.472;9.794;2022-08-11T13:48:52;31.40;1.00
15969;DHT22;8085;53.472;9.794;2022-08-11T13:51:21;31.00;1.00
15969;DHT22;8085;53.472;9.794;2022-08-11T13:54:04;31.20;1.00
15969;DHT22;8085;53.472;9.794;2022-08-11T13:56:32;31.30;1.00
15969;DHT22;8085;53.472;9.794;2022-08-11T13:59:01;31.40;1.00
15969;DHT22;8085;53.472;9.794;2022-08-11T14:01:32;31.50;1.00
15969;DHT22;8085;53.472;9.794;2022-08-11T14:04:04;31.30;1.00
15969;DHT22;8085;53.472;9.794;2022-08-11T14:06:34;31.60;1.00
15969;DHT22;8085;53.472;9.794;2022-08-11T14:09:03;31.50;1.00
15969;DHT22;8085;53.472;9.794;2022-08-11T14:11:34;31.80;1.00
15969;DHT22;8085;53.472;9.794;2022-08-11T14:14:22;32.00;1.00
15969;DHT22;8085;53.472;9.794;2022-08-11T14:16:53;31.90;1.00
15969;DHT22;8085;53.472;9.794;2022-08-11T14:19:22;31.80;1.00
15969;DHT22;8085;53.472;9.794;2022-08-11T14:21:51;31.80;1.00
15969;DHT22;8085;53.472;9.794;2022-08-11T14:24:35;31.80;1.00
15969;DHT22;8085;53.472;9.794;2022-08-11T14:27:03;31.80;1.00
15969;DHT22;8085;53.472;9.794;2022-08-11T14:29:31;32.20;1.00
15969;DHT22;8085;53.472;9.794;2022-08-11T14:32:06;32.20;1.00
15969;DHT22;8085;53.472;9.794;2022-08-11T14:34:35;31.90;1.00
15969;DHT22;8085;53.472;9.794;2022-08-11T14:37:05;31.80;1.00
15969;DHT22;8085;53.472;9.794;2022-08-11T14:39:35;31.80;1.00
15969;DHT22;8085;53.472;9.794;2022-08-11T14:42:05;31.50;1.00
15969;DHT22;8085;53.472;9.794;2022-08-11T14:44:53;31.40;1.00
15969;DHT22;8085;53.472;9.794;2022-08-11T14:47:44;31.70;1.00
15969;DHT22;8085;53.472;9.794;2022-08-11T14:50:15;31.60;1.00
15969;DHT22;8085;53.472;9.794;2022-08-11T14:52:48;32.10;1.00
15969;DHT22;8085;53.472;9.794;2022-08-11T14:55:17;32.10;1.00
15969;DHT22;8085;53.472;9.794;2022-08-11T14:58:03;31.90;1.00
15969;DHT22;8085;53.472;9.794;2022-08-11T15:00:31;31.90;1.00
15969;DHT22;8085;53.472;9.794;2022-08-11T15:03:02;31.50;1.00
15969;DHT22;8085;53.472;9.794;2022-08-11T15:05:39;31.40;1.00
15969;DHT22;8085;53.472;9.794;2022-08-11T15:08:07;31.40;1.00
15969;DHT22;8085;53.472;9.794;2022-08-11T15:10:35;31.60;1.00
15969;DHT22;8085;53.472;9.794;2022-08-11T15:13:03;31.70;1.00
15969;DHT22;8085;53.472;9.794;2022-08-11T15:15:32;31.80;1.00
15969;DHT22;8085;53.472;9.794;2022-08-11T15:18:19;31.80;1.00
15969;DHT22;8085;53.472;9.794;2022-08-11T15:20:49;32.00;1.00
15969;DHT22;8085;53.472;9.794;2022-08-11T15:23:34;31.80;1.00
15969;DHT22;8085;53.472;9.794;2022-08-11T15:26:24;31.80;1.00
15969;DHT22;8085;53.472;9.794;2022-08-11T15:29:08;32.10;1.00
15969;DHT22;8085;53.472;9.794;2022-08-11T15:31:54;32.40;1.00
15969;DHT22;8085;53.472;9.794;2022-08-11T15:34:41;32.20;1.00
15969;DHT22;8085;53.472;9.794;2022-08-11T15:37:27;31.70;1.00
15969;DHT22;8085;53.472;9.794;2022-08-11T15:40:04;32.00;1.00
15969;DHT22;8085;53.472;9.794;2022-08-11T15:42:57;32.20;1.00
15969;DHT22;8085;53.472;9.794;2022-08-11T15:45:51;32.20;1.00
15969;DHT22;8085;53.472;9.794;2022-08-11T15:48:34;31.70;1.00
15969;DHT22;8085;53.472;9.794;2022-08-11T15:51:08;31.40;1.00
15969;DHT22;8085;53.472;9.794;2022-08-11T15:53:40;31.50;1.00
15969;DHT22;8085;53.472;9.794;2022-08-11T15:56:09;31.30;1.00
15969;DHT22;8085;53.472;9.794;2022-08-11T15:58:45;31.20;1.00
15969;DHT22;8085;53.472;9.794;2022-08-11T16:01:29;31.10;1.00
15969;DHT22;8085;53.472;9.794;2022-08-11T16:04:17;31.30;1.00
15969;DHT22;8085;53.472;9.794;2022-08-11T16:06:49;31.20;1.00
15969;DHT22;8085;53.472;9.794;2022-08-11T16:09:20;31.10;1.00
15969;DHT22;8085;53.472;9.794;2022-08-11T16:11:49;31.30;1.00
15969;DHT22;8085;53.472;9.794;2022-08-11T16:14:18;31.40;1.00
15969;DHT22;8085;53.472;9.794;2022-08-11T16:17:06;31.20;1.00
15969;DHT22;8085;53.472;9.794;2022-08-11T16:19:35;31.20;1.00
15969;DHT22;8085;53.472;9.794;2022-08-11T16:22:08;31.30;1.00
15969;DHT22;8085;53.472;9.794;2022-08-11T16:24:37;31.40;1.00
15969;DHT22;8085;53.472;9.794;2022-08-11T16:27:07;31.30;1.00
15969;DHT22;8085;53.472;9.794;2022-08-11T16:29:38;31.40;1.00
15969;DHT22;8085;53.472;9.794;2022-08-11T16:32:07;31.40;1.00
15969;DHT22;8085;53.472;9.794;2022-08-11T16:34:43;31.10;1.00
15969;DHT22;8085;53.472;9.794;2022-08-11T16:37:32;31.30;1.00
15969;DHT22;8085;53.472;9.794;2022-08-11T16:40:18;31.10;1.00
15969;DHT22;8085;53.472;9.794;2022-08-11T16:42:47;30.80;1.00
15969;DHT22;8085;53.472;9.794;2022-08-11T16:45:34;30.60;1.00
15969;DHT22;8085;53.472;9.794;2022-08-11T16:48:27;30.50;1.00
15969;DHT22;8085;53.472;9.794;2022-08-11T16:50:56;30.70;1.00
15969;DHT22;8085;53.472;9.794;2022-08-11T16:53:27;30.70;1.00
15969;DHT22;8085;53.472;9.794;2022-08-11T16:55:57;30.60;1.00
15969;DHT22;8085;53.472;9.794;2022-08-11T16:58:29;30.50;1.00
15969;DHT22;8085;53.472;9.794;2022-08-11T17:01:15;30.40;1.00
15969;DHT22;8085;53.472;9.794;2022-08-11T17:03:48;30.20;1.00
15969;DHT22;8085;53.472;9.794;2022-08-11T17:06:37;30.30;1.00
15969;DHT22;8085;53.472;9.794;2022-08-11T17:09:29;30.30;1.00
15969;DHT22;8085;53.472;9.794;2022-08-11T17:12:16;30.30;1.00
15969;DHT22;8085;53.472;9.794;2022-08-11T17:15:08;30.20;1.00
15969;DHT22;8085;53.472;9.794;2022-08-11T17:17:57;29.90;1.00
15969;DHT22;8085;53.472;9.794;2022-08-11T17:20:26;29.80;1.00
15969;DHT22;8085;53.472;9.794;2022-08-11T17:22:54;29.70;1.00
15969;DHT22;8085;53.472;9.794;2022-08-11T17:25:42;29.70;1.00
15969;DHT22;8085;53.472;9.794;2022-08-11T17:28:13;29.80;1.00
15969;DHT22;8085;53.472;9.794;2022-08-11T17:30:42;29.90;1.00
15969;DHT22;8085;53.472;9.794;2022-08-11T17:33:26;29.70;1.00
15969;DHT22;8085;53.472;9.794;2022-08-11T17:36:13;29.80;1.00
15969;DHT22;8085;53.472;9.794;2022-08-11T17:38:42;29.30;1.00
15969;DHT22;8085;53.472;9.794;2022-08-11T17:41:11;29.40;1.00
15969;DHT22;8085;53.472;9.794;2022-08-11T17:43:57;29.40;1.00
15969;DHT22;8085;53.472;9.794;2022-08-11T17:46:42;29.40;1.00
15969;DHT22;8085;53.472;9.794;2022-08-11T17:49:28;29.30;1.00
15969;DHT22;8085;53.472;9.794;2022-08-11T17:52:03;29.20;1.00
15969;DHT22;8085;53.472;9.794;2022-08-11T17:54:49;29.10;1.00
15969;DHT22;8085;53.472;9.794;2022-08-11T17:57:37;29.10;1.00
15969;DHT22;8085;53.472;9.794;2022-08-11T18:00:22;29.10;1.00
15969;DHT22;8085;53.472;9.794;2022-08-11T18:02:50;29.00;1.00
15969;DHT22;8085;53.472;9.794;2022-08-11T18:05:37;28.70;1.00
15969;DHT22;8085;53.472;9.794;2022-08-11T18:08:10;28.70;1.00
15969;DHT22;8085;53.472;9.794;2022-08-11T18:10:56;28.50;1.00
15969;DHT22;8085;53.472;9.794;2022-08-11T18:13:43;28.50;1.00
15969;DHT22;8085;53.472;9.794;2022-08-11T18:16:28;28.40;1.00
15969;DHT22;8085;53.472;9.794;2022-08-11T18:19:14;28.20;1.00
15969;DHT22;8085;53.472;9.794;2022-08-11T18:22:02;28.10;12.70
15969;DHT22;8085;53.472;9.794;2022-08-11T18:24:52;28.10;15.70
15969;DHT22;8085;53.472;9.794;2022-08-11T18:27:41;28.20;1.00
15969;DHT22;8085;53.472;9.794;2022-08-11T18:30:30;28.20;1.00
15969;DHT22;8085;53.472;9.794;2022-08-11T18:33:18;28.10;1.00
15969;DHT22;8085;53.472;9.794;2022-08-11T18:36:04;28.00;3.40
15969;DHT22;8085;53.472;9.794;2022-08-11T18:38:50;27.90;8.40
15969;DHT22;8085;53.472;9.794;2022-08-11T18:41:37;27.90;8.30
15969;DHT22;8085;53.472;9.794;2022-08-11T18:44:25;27.90;28.80
15969;DHT22;8085;53.472;9.794;2022-08-11T18:47:15;27.80;15.80
15969;DHT22;8085;53.472;9.794;2022-08-11T18:50:02;27.70;22.00
15969;DHT22;8085;53.472;9.794;2022-08-11T18:52:51;27.60;28.50
15969;DHT22;8085;53.472;9.794;2022-08-11T18:55:36;27.60;30.00
15969;DHT22;8085;53.472;9.794;2022-08-11T18:58:26;27.50;27.50
15969;DHT22;8085;53.472;9.794;2022-08-11T19:01:13;27.50;26.60